createdAt,value
2017-07-27T00:02:07.128Z,21.62
2017-07-27T00:04:35.610Z,21.51
2017-07-27T00:07:03.344Z,21.59
2017-07-27T00:09:30.941Z,21.70
2017-07-27T00:11:58.530Z,21.78
2017-07-27T00:14:26.131Z,21.83
2017-07-27T00:16:53.754Z,21.88
2017-07-27T00:19:21.298Z,22.01
2017-07-27T00:21:48.873Z,21.99
2017-07-27T00:24:16.451Z,22.09
2017-07-27T00:26:44.210Z,21.89
2017-07-27T00:29:11.774Z,21.99
2017-07-27T00:31:39.446Z,21.90
2017-07-27T00:34:06.991Z,21.90
2017-07-27T00:36:34.546Z,21.81
2017-07-27T00:39:02.167Z,21.73
2017-07-27T00:41:30.703Z,21.57
2017-07-27T00:43:58.267Z,21.48
2017-07-27T00:46:25.860Z,21.44
2017-07-27T00:48:53.470Z,21.42
2017-07-27T00:51:21.015Z,21.63
2017-07-27T00:53:48.624Z,21.68
2017-07-27T00:56:16.200Z,21.75
2017-07-27T00:58:43.843Z,21.74
2017-07-27T01:01:11.853Z,21.79
2017-07-27T01:03:39.702Z,21.70
2017-07-27T01:06:07.343Z,21.66
2017-07-27T01:08:34.939Z,21.59
2017-07-27T01:11:02.701Z,21.51
2017-07-27T01:13:30.294Z,21.59
2017-07-27T01:15:57.953Z,21.51
2017-07-27T01:18:25.539Z,21.55
2017-07-27T01:20:53.124Z,21.56
2017-07-27T01:23:20.752Z,21.59
2017-07-27T01:25:49.398Z,21.64
2017-07-27T01:28:16.962Z,21.47
2017-07-27T01:30:44.578Z,21.54
2017-07-27T01:33:12.183Z,21.48
2017-07-27T01:35:39.818Z,21.40
2017-07-27T01:38:07.412Z,21.27
2017-07-27T01:40:35.171Z,21.23
2017-07-27T01:43:02.721Z,21.26
2017-07-27T01:45:30.358Z,21.23
2017-07-27T01:47:57.950Z,21.20
2017-07-27T01:50:25.722Z,21.10
2017-07-27T01:52:53.353Z,21.09
2017-07-27T01:55:21.559Z,21.07
2017-07-27T01:57:49.125Z,21.21
2017-07-27T02:00:16.770Z,21.11
2017-07-27T02:02:44.395Z,21.11
2017-07-27T02:05:11.996Z,21.12
2017-07-27T02:07:39.586Z,21.30
2017-07-27T02:10:07.158Z,21.32
2017-07-27T02:12:34.754Z,21.34
2017-07-27T02:15:02.376Z,21.32
2017-07-27T02:17:29.918Z,21.28
2017-07-27T02:19:57.691Z,21.36
2017-07-27T02:22:25.339Z,21.32
2017-07-27T02:24:52.982Z,21.26
2017-07-27T02:27:20.750Z,21.25
2017-07-27T02:29:48.398Z,21.19
2017-07-27T02:32:15.987Z,21.32
2017-07-27T02:34:43.749Z,21.30
2017-07-27T02:37:11.321Z,21.33
2017-07-27T02:39:38.923Z,21.38
2017-07-27T02:42:06.493Z,21.49
2017-07-27T02:44:34.096Z,21.37
2017-07-27T02:47:01.754Z,21.22
2017-07-27T02:49:29.380Z,21.31
2017-07-27T02:51:56.942Z,21.39
2017-07-27T02:54:24.530Z,21.43
2017-07-27T02:56:52.281Z,21.42
2017-07-27T02:59:19.864Z,21.48
2017-07-27T03:01:47.549Z,21.47
2017-07-27T03:04:15.134Z,21.52
2017-07-27T03:06:42.689Z,21.51
2017-07-27T03:09:10.335Z,21.50
2017-07-27T03:11:37.921Z,21.26
2017-07-27T03:14:06.262Z,21.09
2017-07-27T03:16:33.858Z,21.08
2017-07-27T03:19:01.414Z,21.09
2017-07-27T03:21:29.002Z,21.02
2017-07-27T03:23:56.586Z,20.83
2017-07-27T03:26:24.170Z,20.84
2017-07-27T03:28:51.845Z,20.67
2017-07-27T03:31:19.451Z,20.71
2017-07-27T03:33:47.491Z,20.66
2017-07-27T03:36:15.072Z,20.50
2017-07-27T03:38:42.717Z,20.41
2017-07-27T03:41:10.347Z,20.49
2017-07-27T03:43:38.125Z,20.59
2017-07-27T03:46:05.741Z,20.59
2017-07-27T03:48:33.349Z,20.65
2017-07-27T03:51:00.998Z,20.62
2017-07-27T03:53:28.678Z,20.71
2017-07-27T03:55:56.214Z,20.46
2017-07-27T03:58:24.143Z,20.26
2017-07-27T04:00:51.779Z,20.25
2017-07-27T04:03:19.389Z,20.22
2017-07-27T04:05:47.076Z,20.52
2017-07-27T04:08:14.748Z,20.46
2017-07-27T04:10:42.347Z,20.31
2017-07-27T04:13:10.209Z,20.40
2017-07-27T04:15:38.045Z,20.39
2017-07-27T04:18:05.672Z,20.53
2017-07-27T04:20:33.259Z,20.54
2017-07-27T04:23:00.852Z,20.56
2017-07-27T04:25:29.202Z,20.74
2017-07-27T04:27:56.831Z,20.62
2017-07-27T04:30:24.505Z,20.71
2017-07-27T04:32:52.050Z,20.75
2017-07-27T04:35:19.902Z,20.85
2017-07-27T04:37:47.488Z,20.90
2017-07-27T04:40:15.090Z,20.91
2017-07-27T04:42:42.634Z,20.68
2017-07-27T04:45:10.335Z,20.88
2017-07-27T04:47:38.053Z,21.25
2017-07-27T04:50:05.846Z,21.03
2017-07-27T04:52:33.438Z,21.33
2017-07-27T04:55:01.141Z,21.31
2017-07-27T04:57:40.387Z,21.06
2017-07-27T05:00:08.055Z,21.03
2017-07-27T05:02:35.600Z,20.83
2017-07-27T05:05:03.169Z,20.84
2017-07-27T05:07:30.805Z,20.60
2017-07-27T05:09:58.427Z,20.67
2017-07-27T05:12:26.038Z,20.51
2017-07-27T05:14:53.832Z,20.18
2017-07-27T05:17:21.487Z,20.01
2017-07-27T05:19:49.028Z,19.98
2017-07-27T05:22:16.674Z,19.86
2017-07-27T05:24:44.429Z,20.10
2017-07-27T05:27:12.051Z,19.84
2017-07-27T05:29:39.654Z,19.88
2017-07-27T05:32:07.250Z,19.85
2017-07-27T05:34:34.816Z,19.97
2017-07-27T05:37:03.299Z,19.97
2017-07-27T05:39:30.913Z,20.16
2017-07-27T05:41:58.519Z,20.01
2017-07-27T05:44:26.067Z,20.16
2017-07-27T05:46:53.721Z,20.25
2017-07-27T05:49:21.473Z,20.23
2017-07-27T05:51:49.255Z,20.22
2017-07-27T05:54:16.875Z,20.31
2017-07-27T05:56:44.659Z,20.41
2017-07-27T05:59:12.473Z,20.51
2017-07-27T06:01:40.082Z,20.56
2017-07-27T06:04:07.640Z,20.66
2017-07-27T06:06:35.246Z,20.82
2017-07-27T06:09:02.882Z,20.85
2017-07-27T06:11:30.477Z,20.85
2017-07-27T06:13:58.092Z,21.07
2017-07-27T06:16:25.699Z,20.98
2017-07-27T06:18:53.532Z,21.05
2017-07-27T06:21:21.061Z,21.28
2017-07-27T06:23:48.679Z,21.76
2017-07-27T06:26:16.360Z,21.89
2017-07-27T06:28:43.905Z,21.83
2017-07-27T06:31:11.545Z,22.30
2017-07-27T06:33:39.391Z,22.57
2017-07-27T06:36:06.965Z,22.83
2017-07-27T06:38:34.588Z,22.32
2017-07-27T06:41:02.234Z,21.96
2017-07-27T06:43:29.859Z,22.37
2017-07-27T06:45:57.515Z,22.44
2017-07-27T06:48:25.285Z,22.80
2017-07-27T06:50:52.928Z,22.99
2017-07-27T06:53:20.707Z,23.00
2017-07-27T06:55:48.474Z,22.72
2017-07-27T06:58:16.045Z,23.22
2017-07-27T07:00:43.649Z,23.06
2017-07-27T07:03:11.276Z,23.38
2017-07-27T07:05:39.040Z,23.31
2017-07-27T07:08:06.633Z,23.45
2017-07-27T07:10:34.245Z,23.16
2017-07-27T07:13:01.887Z,22.93
2017-07-27T07:15:29.520Z,23.06
2017-07-27T07:17:57.116Z,22.95
2017-07-27T07:20:25.538Z,22.64
2017-07-27T07:22:53.135Z,23.35
2017-07-27T07:25:20.738Z,24.11
2017-07-27T07:27:48.334Z,24.53
2017-07-27T07:30:16.778Z,24.95
2017-07-27T07:32:44.375Z,25.06
2017-07-27T07:35:12.222Z,24.55
2017-07-27T07:37:39.834Z,24.35
2017-07-27T07:40:07.512Z,24.51
2017-07-27T07:42:35.293Z,24.49
2017-07-27T07:45:02.909Z,24.72
2017-07-27T07:47:31.368Z,24.98
2017-07-27T07:49:59.051Z,25.36
2017-07-27T07:52:26.833Z,25.71
2017-07-27T07:54:54.434Z,25.58
2017-07-27T07:57:22.056Z,25.70
2017-07-27T07:59:49.622Z,25.96
2017-07-27T08:02:17.620Z,25.92
2017-07-27T08:04:45.190Z,26.02
2017-07-27T08:07:13.005Z,25.67
2017-07-27T08:09:52.346Z,26.20
2017-07-27T08:12:19.937Z,26.51
2017-07-27T08:14:48.460Z,26.59
2017-07-27T08:17:16.054Z,26.45
2017-07-27T08:19:43.873Z,26.73
2017-07-27T08:22:11.484Z,26.83
2017-07-27T08:24:39.112Z,26.65
2017-07-27T08:27:06.739Z,26.64
2017-07-27T08:29:35.219Z,26.68
2017-07-27T08:32:02.821Z,26.75
2017-07-27T08:34:30.407Z,26.45
2017-07-27T08:36:57.937Z,26.26
2017-07-27T08:39:25.547Z,26.20
2017-07-27T08:41:53.294Z,26.46
2017-07-27T08:44:20.878Z,26.54
2017-07-27T08:46:51.521Z,26.74
2017-07-27T08:49:19.840Z,27.20
2017-07-27T08:51:47.614Z,27.25
2017-07-27T08:54:15.169Z,27.36
2017-07-27T08:56:42.902Z,27.49
2017-07-27T08:59:10.686Z,27.23
2017-07-27T09:01:39.105Z,27.53
2017-07-27T09:04:06.729Z,27.65
2017-07-27T09:06:34.475Z,27.74
2017-07-27T09:09:02.072Z,27.58
2017-07-27T09:11:29.662Z,27.48
2017-07-27T09:13:57.306Z,27.65
2017-07-27T09:16:24.941Z,27.55
2017-07-27T09:18:52.533Z,27.31
2017-07-27T09:21:20.095Z,26.72
2017-07-27T09:23:47.686Z,26.59
2017-07-27T09:26:16.005Z,26.92
2017-07-27T09:28:43.653Z,26.52
2017-07-27T09:31:11.237Z,26.51
2017-07-27T09:33:38.826Z,26.83
2017-07-27T09:36:06.373Z,26.72
2017-07-27T09:38:33.963Z,26.56
2017-07-27T09:41:01.600Z,27.03
2017-07-27T09:43:29.163Z,27.45
2017-07-27T09:45:56.749Z,27.76
2017-07-27T09:48:24.348Z,27.59
2017-07-27T09:50:52.008Z,26.73
2017-07-27T09:53:19.613Z,26.73
2017-07-27T09:55:47.195Z,27.16
2017-07-27T09:58:14.729Z,27.49
2017-07-27T10:00:42.358Z,27.62
2017-07-27T10:03:09.964Z,27.59
2017-07-27T10:05:37.523Z,27.82
2017-07-27T10:08:05.110Z,27.93
2017-07-27T10:10:32.713Z,27.80
2017-07-27T10:13:00.278Z,28.00
2017-07-27T10:15:28.834Z,27.32
2017-07-27T10:17:56.414Z,27.48
2017-07-27T10:20:24.030Z,27.46
2017-07-27T10:22:51.615Z,27.26
2017-07-27T10:25:19.190Z,26.95
2017-07-27T10:27:46.747Z,26.56
2017-07-27T10:30:14.339Z,26.85
2017-07-27T10:32:41.897Z,27.12
2017-07-27T10:35:09.511Z,26.93
2017-07-27T10:37:37.173Z,26.78
2017-07-27T10:40:04.949Z,27.14
2017-07-27T10:42:32.628Z,27.15
2017-07-27T10:45:00.190Z,27.33
2017-07-27T10:47:27.758Z,27.27
2017-07-27T10:49:55.351Z,27.25
2017-07-27T10:52:22.939Z,27.33
2017-07-27T10:54:50.539Z,27.12
2017-07-27T10:57:18.114Z,27.33
2017-07-27T10:59:45.689Z,27.56
2017-07-27T11:02:13.280Z,27.56
2017-07-27T11:04:40.877Z,27.65
2017-07-27T11:07:08.483Z,27.76
2017-07-27T11:09:36.191Z,27.85
2017-07-27T11:12:03.774Z,27.76
2017-07-27T11:14:31.341Z,27.70
2017-07-27T11:16:58.959Z,27.61
2017-07-27T11:19:26.574Z,27.68
2017-07-27T11:21:54.145Z,28.04
2017-07-27T11:24:21.766Z,28.16
2017-07-27T11:26:49.350Z,28.34
2017-07-27T11:29:16.988Z,28.34
2017-07-27T11:31:44.602Z,28.24
2017-07-27T11:34:12.182Z,28.37
2017-07-27T11:36:39.809Z,28.26
2017-07-27T11:39:07.441Z,28.13
2017-07-27T11:41:35.083Z,28.02
2017-07-27T11:44:02.695Z,27.99
2017-07-27T11:46:30.281Z,28.02
2017-07-27T11:48:57.837Z,27.67
2017-07-27T11:51:25.390Z,27.74
2017-07-27T11:53:53.055Z,28.05
2017-07-27T11:56:20.666Z,28.36
2017-07-27T11:58:48.205Z,28.37
2017-07-27T12:01:15.805Z,28.00
2017-07-27T12:03:43.416Z,27.58
2017-07-27T12:06:10.996Z,27.68
2017-07-27T12:08:38.671Z,27.50
2017-07-27T12:11:06.289Z,27.53
2017-07-27T12:13:34.181Z,27.50
2017-07-27T12:16:02.177Z,27.47
2017-07-27T12:18:29.776Z,27.29
2017-07-27T12:20:57.372Z,26.93
2017-07-27T12:23:24.978Z,26.88
2017-07-27T12:25:52.617Z,26.28
2017-07-27T12:28:20.258Z,25.91
2017-07-27T12:30:47.895Z,25.81
2017-07-27T12:33:15.465Z,25.58
2017-07-27T12:35:43.693Z,25.43
2017-07-27T12:38:11.342Z,25.23
2017-07-27T12:40:39.645Z,24.99
2017-07-27T12:43:07.221Z,24.52
2017-07-27T12:45:34.840Z,24.26
2017-07-27T12:48:02.480Z,24.09
2017-07-27T12:50:30.045Z,23.94
2017-07-27T12:52:57.673Z,23.86
2017-07-27T12:55:26.124Z,23.80
2017-07-27T12:57:53.709Z,23.91
2017-07-27T13:00:21.422Z,23.94
2017-07-27T13:02:48.989Z,23.71
2017-07-27T13:05:16.569Z,23.46
2017-07-27T13:07:44.196Z,23.51
2017-07-27T13:10:12.065Z,23.78
2017-07-27T13:12:39.700Z,24.04
2017-07-27T13:15:07.303Z,24.21
2017-07-27T13:17:34.915Z,24.33
2017-07-27T13:20:02.696Z,24.16
2017-07-27T13:22:30.317Z,23.85
2017-07-27T13:24:58.077Z,23.97
2017-07-27T13:27:25.654Z,23.71
2017-07-27T13:29:53.278Z,23.61
2017-07-27T13:32:20.854Z,23.13
2017-07-27T13:34:48.431Z,22.82
2017-07-27T13:37:16.015Z,22.60
2017-07-27T13:39:43.646Z,22.48
2017-07-27T13:42:11.319Z,22.43
2017-07-27T13:44:39.089Z,22.73
2017-07-27T13:47:06.690Z,22.82
2017-07-27T13:49:34.299Z,22.75
2017-07-27T13:52:02.642Z,22.73
2017-07-27T13:54:30.243Z,22.62
2017-07-27T13:56:57.846Z,22.63
2017-07-27T13:59:25.437Z,22.51
2017-07-27T14:01:53.087Z,22.45
2017-07-27T14:04:21.019Z,22.30
2017-07-27T14:06:48.625Z,22.54
2017-07-27T14:09:16.254Z,22.67
2017-07-27T14:11:43.797Z,22.99
2017-07-27T14:14:11.398Z,22.85
2017-07-27T14:16:39.031Z,22.86
2017-07-27T14:19:06.815Z,22.93
2017-07-27T14:21:34.577Z,22.83
2017-07-27T14:24:02.201Z,23.19
2017-07-27T14:26:29.797Z,23.32
2017-07-27T14:28:57.574Z,23.39
2017-07-27T14:31:25.199Z,23.62
2017-07-27T14:33:53.411Z,23.94
2017-07-27T14:36:20.991Z,24.01
2017-07-27T14:38:48.581Z,24.21
2017-07-27T14:41:16.198Z,24.13
2017-07-27T14:43:43.945Z,23.75
2017-07-27T14:46:12.466Z,23.78
2017-07-27T14:48:40.103Z,23.68
2017-07-27T14:51:07.710Z,23.74
2017-07-27T14:53:35.378Z,23.73
2017-07-27T14:56:03.003Z,23.91
2017-07-27T14:58:30.628Z,23.97
2017-07-27T15:00:58.250Z,24.03
2017-07-27T15:03:26.890Z,24.27
2017-07-27T15:05:54.561Z,24.36
2017-07-27T15:08:22.921Z,24.65
2017-07-27T15:10:50.599Z,25.00
2017-07-27T15:13:18.283Z,25.23
2017-07-27T15:15:45.955Z,25.40
2017-07-27T15:18:13.805Z,25.55
2017-07-27T15:20:41.949Z,25.50
2017-07-27T15:23:10.809Z,25.52
2017-07-27T15:25:38.769Z,25.45
2017-07-27T15:28:07.097Z,25.58
2017-07-27T15:30:35.583Z,25.54
2017-07-27T15:33:04.041Z,25.60
2017-07-27T15:35:31.712Z,25.66
2017-07-27T15:37:59.542Z,25.65
2017-07-27T15:40:27.219Z,25.79
2017-07-27T15:42:54.835Z,25.84
2017-07-27T15:45:22.531Z,25.77
2017-07-27T15:47:50.205Z,25.79
2017-07-27T15:50:17.866Z,25.80
2017-07-27T15:52:46.339Z,25.89
2017-07-27T15:55:13.969Z,25.64
2017-07-27T15:57:41.731Z,25.50
2017-07-27T16:00:10.555Z,25.43
2017-07-27T16:02:38.341Z,25.47
2017-07-27T16:05:06.706Z,25.39
2017-07-27T16:07:34.408Z,25.41
2017-07-27T16:10:02.632Z,25.33
2017-07-27T16:12:30.332Z,25.37
2017-07-27T16:14:58.247Z,25.20
2017-07-27T16:17:25.872Z,25.19
2017-07-27T16:19:53.510Z,25.16
2017-07-27T16:22:21.202Z,25.11
2017-07-27T16:24:48.944Z,25.06
2017-07-27T16:27:16.646Z,24.86
2017-07-27T16:29:44.461Z,25.04
2017-07-27T16:32:12.243Z,25.07
2017-07-27T16:34:40.013Z,25.10
2017-07-27T16:37:07.730Z,25.16
2017-07-27T16:39:35.453Z,25.25
2017-07-27T16:42:03.198Z,25.27
2017-07-27T16:44:30.923Z,25.17
2017-07-27T16:46:58.692Z,25.11
2017-07-27T16:49:27.517Z,25.05
2017-07-27T16:51:55.254Z,25.08
2017-07-27T16:54:27.147Z,25.07
2017-07-27T16:56:55.526Z,25.12
2017-07-27T17:01:58.307Z,24.81
2017-07-27T17:04:32.109Z,24.84
2017-07-27T17:07:24.454Z,24.82
2017-07-27T17:09:52.216Z,24.57
2017-07-27T17:12:20.047Z,24.62
2017-07-27T17:14:48.105Z,24.52
2017-07-27T17:17:16.734Z,24.35
2017-07-27T17:19:47.314Z,24.42
2017-07-27T17:22:15.049Z,24.42
2017-07-27T17:24:45.526Z,24.63
2017-07-27T17:27:13.303Z,24.65
2017-07-27T17:29:41.022Z,24.58
2017-07-27T17:32:09.785Z,24.59
2017-07-27T17:34:37.744Z,24.56
2017-07-27T17:37:05.499Z,24.58
2017-07-27T17:39:33.392Z,24.52
2017-07-27T17:42:01.155Z,24.42
2017-07-27T17:44:29.146Z,24.31
2017-07-27T17:46:57.675Z,24.26
2017-07-27T17:49:25.417Z,24.27
2017-07-27T17:51:53.917Z,24.15
2017-07-27T17:54:21.623Z,24.22
2017-07-27T17:56:49.835Z,24.08
2017-07-27T17:59:17.490Z,23.93
2017-07-27T18:01:45.237Z,23.98
2017-07-27T18:04:13.389Z,23.88
2017-07-27T18:06:41.143Z,23.85
2017-07-27T18:09:08.873Z,23.74
2017-07-27T18:11:37.397Z,23.66
2017-07-27T18:14:05.401Z,23.56
2017-07-27T18:16:34.023Z,23.54
2017-07-27T18:19:01.645Z,23.34
2017-07-27T18:21:29.404Z,23.45
2017-07-27T18:23:57.098Z,23.50
2017-07-27T18:26:25.499Z,23.39
2017-07-27T18:28:53.140Z,23.39
2017-07-27T18:31:22.061Z,23.34
2017-07-27T18:33:49.762Z,23.19
2017-07-27T18:36:17.926Z,23.11
2017-07-27T18:38:47.355Z,23.17
2017-07-27T18:41:23.894Z,22.88
2017-07-27T18:43:59.894Z,23.00
2017-07-27T18:46:42.413Z,22.98
2017-07-27T18:49:10.409Z,22.84
2017-07-27T18:51:38.031Z,22.76
2017-07-27T18:54:06.102Z,22.82
2017-07-27T18:56:34.331Z,22.81
2017-07-27T18:59:01.997Z,22.67
2017-07-27T19:01:29.619Z,22.68
2017-07-27T19:03:57.706Z,22.65
2017-07-27T19:06:33.018Z,22.71
2017-07-27T19:09:06.287Z,22.68
2017-07-27T19:14:24.726Z,22.63
2017-07-27T19:16:57.287Z,22.53
2017-07-27T19:19:28.228Z,22.61
2017-07-27T19:22:01.041Z,22.53
2017-07-27T19:24:32.342Z,22.58
2017-07-27T19:27:07.582Z,22.53
2017-07-27T19:29:35.870Z,22.43
2017-07-27T19:32:11.549Z,22.33
2017-07-27T19:34:43.466Z,22.33
2017-07-27T19:37:16.489Z,22.48
2017-07-27T19:39:48.055Z,22.47
2017-07-27T19:42:20.268Z,22.35
2017-07-27T19:44:55.070Z,22.38
2017-07-27T19:47:26.201Z,22.21
2017-07-27T19:49:56.545Z,22.16
2017-07-27T19:52:27.621Z,22.37
2017-07-27T19:57:46.054Z,22.10
2017-07-27T20:00:15.547Z,22.00
2017-07-27T20:02:45.987Z,22.00
2017-07-27T20:05:17.286Z,22.14
2017-07-27T20:07:45.024Z,22.05
2017-07-27T20:10:14.798Z,22.06
2017-07-27T20:12:43.171Z,22.00
2017-07-27T20:15:12.872Z,22.00
2017-07-27T20:17:42.989Z,21.99
2017-07-27T20:20:13.118Z,21.92
2017-07-27T20:22:41.953Z,21.96
2017-07-27T20:25:11.202Z,22.03
2017-07-27T20:27:39.685Z,21.92
2017-07-27T20:30:12.309Z,21.79
2017-07-27T20:32:41.301Z,21.76
2017-07-27T20:35:09.802Z,21.70
2017-07-27T20:37:40.888Z,21.71
2017-07-27T20:40:10.380Z,21.73
2017-07-27T20:42:40.413Z,21.61
2017-07-27T20:45:11.107Z,21.59
2017-07-27T20:47:46.175Z,21.36
2017-07-27T20:50:15.077Z,21.52
2017-07-27T20:52:42.900Z,21.62
2017-07-27T20:55:10.663Z,21.52
2017-07-27T20:57:38.242Z,21.41
2017-07-27T21:00:07.485Z,21.48
2017-07-27T21:02:35.032Z,21.44
2017-07-27T21:05:02.621Z,21.40
2017-07-27T21:07:30.213Z,21.33
2017-07-27T21:09:57.813Z,21.41
2017-07-27T21:12:25.370Z,21.41
2017-07-27T21:14:52.949Z,21.38
2017-07-27T21:17:20.534Z,21.25
2017-07-27T21:19:48.104Z,21.32
2017-07-27T21:22:15.678Z,21.32
2017-07-27T21:24:43.320Z,21.44
2017-07-27T21:27:10.858Z,21.36
2017-07-27T21:29:38.497Z,21.30
2017-07-27T21:32:06.104Z,21.23
2017-07-27T21:34:33.834Z,21.32
2017-07-27T21:37:01.434Z,21.30
2017-07-27T21:39:29.051Z,21.24
2017-07-27T21:41:56.595Z,21.22
2017-07-27T21:44:24.412Z,21.11
2017-07-27T21:46:52.025Z,21.12
2017-07-27T21:49:19.606Z,20.98
2017-07-27T21:51:47.161Z,21.19
2017-07-27T21:54:15.895Z,21.10
2017-07-27T21:56:43.709Z,20.97
2017-07-27T21:59:11.267Z,21.03
2017-07-27T22:01:39.663Z,21.07
2017-07-27T22:04:07.252Z,20.92
2017-07-27T22:06:35.010Z,20.96
2017-07-27T22:09:02.675Z,20.80
2017-07-27T22:11:30.220Z,20.94
2017-07-27T22:13:57.791Z,20.76
2017-07-27T22:16:25.377Z,20.76
2017-07-27T22:18:52.971Z,20.81
2017-07-27T22:21:20.806Z,20.77
2017-07-27T22:23:48.402Z,20.72
2017-07-27T22:26:16.409Z,20.75
2017-07-27T22:28:43.949Z,20.81
2017-07-27T22:31:11.534Z,20.67
2017-07-27T22:33:39.153Z,20.42
2017-07-27T22:36:06.694Z,20.26
2017-07-27T22:38:34.305Z,20.56
2017-07-27T22:41:01.878Z,20.55
2017-07-27T22:43:29.614Z,20.53
2017-07-27T22:45:57.217Z,20.32
2017-07-27T22:48:24.841Z,20.39
2017-07-27T22:50:52.433Z,20.50
2017-07-27T22:53:20.206Z,20.51
2017-07-27T22:55:47.758Z,20.47
2017-07-27T22:58:15.289Z,20.51
2017-07-27T23:00:42.919Z,20.53
2017-07-27T23:03:10.538Z,20.57
2017-07-27T23:05:38.352Z,20.53
2017-07-27T23:08:06.033Z,20.47
2017-07-27T23:10:33.630Z,20.49
2017-07-27T23:13:01.386Z,20.60
2017-07-27T23:15:28.981Z,20.52
2017-07-27T23:17:56.725Z,20.51
2017-07-27T23:20:24.275Z,20.51
2017-07-27T23:22:51.849Z,20.48
2017-07-27T23:25:19.362Z,20.51
2017-07-27T23:27:46.891Z,20.20
2017-07-27T23:30:14.485Z,20.36
2017-07-27T23:32:42.230Z,20.08
2017-07-27T23:35:09.793Z,20.02
2017-07-27T23:37:37.722Z,19.92
2017-07-27T23:40:05.584Z,19.99
2017-07-27T23:42:33.453Z,19.94
2017-07-27T23:45:01.000Z,19.91
2017-07-27T23:47:28.845Z,19.94
2017-07-27T23:49:56.417Z,19.77
2017-07-27T23:52:24.017Z,19.71
2017-07-27T23:54:51.553Z,19.62
2017-07-27T23:57:19.137Z,19.55
2017-07-27T23:59:46.737Z,19.59
